sensor_id;sensor_type;location;lat;lon;timestamp;P1;durP1;ratioP1;P2;durP2;ratioP2
62844;SDS011;48929;47.910;20.390;2023-03-01T00:01:52;25.27;;;12.65;;
62844;SDS011;48929;47.910;20.390;2023-03-01T00:04:21;23.08;;;12.13;;
62844;SDS011;48929;47.910;20.390;2023-03-01T00:06:49;23.55;;;11.80;;
62844;SDS011;48929;47.910;20.390;2023-03-01T00:09:18;25.23;;;12.48;;
62844;SDS011;48929;47.910;20.390;2023-03-01T00:11:48;23.13;;;11.95;;
62844;SDS011;48929;47.910;20.390;2023-03-01T00:14:17;24.13;;;12.25;;
62844;SDS011;48929;47.910;20.390;2023-03-01T00:16:46;24.25;;;11.73;;
62844;SDS011;48929;47.910;20.390;2023-03-01T00:19:16;29.63;;;13.25;;
62844;SDS011;48929;47.910;20.390;2023-03-01T00:21:48;20.60;;;11.18;;
62844;SDS011;48929;47.910;20.390;2023-03-01T00:24:17;26.98;;;13.40;;
62844;SDS011;48929;47.910;20.390;2023-03-01T00:26:47;22.45;;;11.13;;
62844;SDS011;48929;47.910;20.390;2023-03-01T00:29:16;26.83;;;12.57;;
62844;SDS011;48929;47.910;20.390;2023-03-01T00:31:44;21.08;;;11.35;;
62844;SDS011;48929;47.910;20.390;2023-03-01T00:34:13;21.95;;;11.57;;
62844;SDS011;48929;47.910;20.390;2023-03-01T00:36:43;22.52;;;11.35;;
62844;SDS011;48929;47.910;20.390;2023-03-01T00:39:13;20.25;;;11.20;;
62844;SDS011;48929;47.910;20.390;2023-03-01T00:41:42;20.25;;;10.77;;
62844;SDS011;48929;47.910;20.390;2023-03-01T00:44:11;21.08;;;10.05;;
62844;SDS011;48929;47.910;20.390;2023-03-01T00:46:40;21.75;;;11.35;;
62844;SDS011;48929;47.910;20.390;2023-03-01T00:49:09;23.13;;;12.35;;
62844;SDS011;48929;47.910;20.390;2023-03-01T00:51:38;23.50;;;11.02;;
62844;SDS011;48929;47.910;20.390;2023-03-01T00:54:09;20.52;;;9.82;;
62844;SDS011;48929;47.910;20.390;2023-03-01T00:56:38;20.55;;;9.70;;
62844;SDS011;48929;47.910;20.390;2023-03-01T00:59:07;22.80;;;10.50;;
62844;SDS011;48929;47.910;20.390;2023-03-01T01:01:36;24.60;;;9.73;;
62844;SDS011;48929;47.910;20.390;2023-03-01T01:04:05;22.42;;;9.48;;
62844;SDS011;48929;47.910;20.390;2023-03-01T01:06:37;20.45;;;9.25;;
62844;SDS011;48929;47.910;20.390;2023-03-01T01:09:11;20.80;;;9.07;;
62844;SDS011;48929;47.910;20.390;2023-03-01T01:11:44;17.55;;;8.93;;
62844;SDS011;48929;47.910;20.390;2023-03-01T01:14:13;18.85;;;8.07;;
62844;SDS011;48929;47.910;20.390;2023-03-01T01:16:42;16.50;;;7.70;;
62844;SDS011;48929;47.910;20.390;2023-03-01T01:19:12;16.70;;;7.78;;
62844;SDS011;48929;47.910;20.390;2023-03-01T01:21:41;12.63;;;7.13;;
62844;SDS011;48929;47.910;20.390;2023-03-01T01:24:12;13.55;;;6.85;;
62844;SDS011;48929;47.910;20.390;2023-03-01T01:26:40;11.98;;;6.43;;
62844;SDS011;48929;47.910;20.390;2023-03-01T01:29:09;12.57;;;6.30;;
62844;SDS011;48929;47.910;20.390;2023-03-01T01:31:40;12.73;;;6.60;;
62844;SDS011;48929;47.910;20.390;2023-03-01T01:34:12;12.93;;;6.82;;
62844;SDS011;48929;47.910;20.390;2023-03-01T01:36:42;12.23;;;6.65;;
62844;SDS011;48929;47.910;20.390;2023-03-01T01:39:12;13.55;;;6.70;;
62844;SDS011;48929;47.910;20.390;2023-03-01T01:41:41;10.98;;;5.82;;
62844;SDS011;48929;47.910;20.390;2023-03-01T01:44:11;12.77;;;6.65;;
62844;SDS011;48929;47.910;20.390;2023-03-01T01:46:43;13.45;;;6.32;;
62844;SDS011;48929;47.910;20.390;2023-03-01T01:52:07;15.80;;;6.70;;
62844;SDS011;48929;47.910;20.390;2023-03-01T01:54:43;15.18;;;6.97;;
62844;SDS011;48929;47.910;20.390;2023-03-01T01:57:16;14.13;;;6.43;;
62844;SDS011;48929;47.910;20.390;2023-03-01T01:59:51;12.27;;;6.20;;
62844;SDS011;48929;47.910;20.390;2023-03-01T02:02:22;14.40;;;6.95;;
62844;SDS011;48929;47.910;20.390;2023-03-01T02:04:52;12.25;;;6.35;;
62844;SDS011;48929;47.910;20.390;2023-03-01T02:07:26;10.80;;;6.03;;
62844;SDS011;48929;47.910;20.390;2023-03-01T02:09:57;13.57;;;5.85;;
62844;SDS011;48929;47.910;20.390;2023-03-01T02:12:27;13.13;;;6.07;;
62844;SDS011;48929;47.910;20.390;2023-03-01T02:14:56;11.75;;;6.30;;
62844;SDS011;48929;47.910;20.390;2023-03-01T02:17:25;11.23;;;6.18;;
62844;SDS011;48929;47.910;20.390;2023-03-01T02:19:59;11.48;;;6.55;;
62844;SDS011;48929;47.910;20.390;2023-03-01T02:22:39;12.93;;;6.75;;
62844;SDS011;48929;47.910;20.390;2023-03-01T02:25:12;12.98;;;6.63;;
62844;SDS011;48929;47.910;20.390;2023-03-01T02:28:05;14.80;;;7.10;;
62844;SDS011;48929;47.910;20.390;2023-03-01T02:30:44;14.70;;;6.93;;
62844;SDS011;48929;47.910;20.390;2023-03-01T02:33:30;15.75;;;7.20;;
62844;SDS011;48929;47.910;20.390;2023-03-01T02:36:03;13.20;;;7.20;;
62844;SDS011;48929;47.910;20.390;2023-03-01T02:38:35;15.65;;;7.60;;
62844;SDS011;48929;47.910;20.390;2023-03-01T02:41:04;12.60;;;6.70;;
62844;SDS011;48929;47.910;20.390;2023-03-01T02:43:37;13.43;;;7.03;;
62844;SDS011;48929;47.910;20.390;2023-03-01T02:46:08;14.63;;;7.25;;
62844;SDS011;48929;47.910;20.390;2023-03-01T02:48:43;14.20;;;7.30;;
62844;SDS011;48929;47.910;20.390;2023-03-01T02:51:22;16.75;;;8.13;;
62844;SDS011;48929;47.910;20.390;2023-03-01T02:54:00;16.95;;;8.23;;
62844;SDS011;48929;47.910;20.390;2023-03-01T02:56:36;19.52;;;8.88;;
62844;SDS011;48929;47.910;20.390;2023-03-01T02:59:05;15.52;;;8.15;;
62844;SDS011;48929;47.910;20.390;2023-03-01T03:01:36;19.02;;;9.13;;
62844;SDS011;48929;47.910;20.390;2023-03-01T03:04:06;19.83;;;10.07;;
62844;SDS011;48929;47.910;20.390;2023-03-01T03:06:36;12.98;;;6.72;;
62844;SDS011;48929;47.910;20.390;2023-03-01T03:09:05;14.15;;;6.75;;
62844;SDS011;48929;47.910;20.390;2023-03-01T03:11:34;12.00;;;6.70;;
62844;SDS011;48929;47.910;20.390;2023-03-01T03:14:03;14.52;;;7.25;;
62844;SDS011;48929;47.910;20.390;2023-03-01T03:16:32;15.73;;;7.72;;
62844;SDS011;48929;47.910;20.390;2023-03-01T03:19:02;13.75;;;6.70;;
62844;SDS011;48929;47.910;20.390;2023-03-01T03:21:32;23.10;;;8.05;;
62844;SDS011;48929;47.910;20.390;2023-03-01T03:24:02;15.65;;;6.53;;
62844;SDS011;48929;47.910;20.390;2023-03-01T03:26:31;11.30;;;5.90;;
62844;SDS011;48929;47.910;20.390;2023-03-01T03:29:00;10.35;;;5.82;;
62844;SDS011;48929;47.910;20.390;2023-03-01T03:31:29;11.40;;;5.53;;
62844;SDS011;48929;47.910;20.390;2023-03-01T03:33:58;10.80;;;5.38;;
62844;SDS011;48929;47.910;20.390;2023-03-01T03:36:28;11.65;;;5.25;;
62844;SDS011;48929;47.910;20.390;2023-03-01T03:38:57;11.52;;;5.38;;
62844;SDS011;48929;47.910;20.390;2023-03-01T03:41:26;10.35;;;5.35;;
62844;SDS011;48929;47.910;20.390;2023-03-01T03:43:59;12.70;;;6.22;;
62844;SDS011;48929;47.910;20.390;2023-03-01T03:46:27;14.88;;;6.65;;
62844;SDS011;48929;47.910;20.390;2023-03-01T03:48:57;14.43;;;7.50;;
62844;SDS011;48929;47.910;20.390;2023-03-01T03:51:25;13.63;;;7.45;;
62844;SDS011;48929;47.910;20.390;2023-03-01T03:53:56;14.50;;;6.82;;
62844;SDS011;48929;47.910;20.390;2023-03-01T03:56:25;14.45;;;7.40;;
62844;SDS011;48929;47.910;20.390;2023-03-01T03:58:54;15.40;;;7.03;;
62844;SDS011;48929;47.910;20.390;2023-03-01T04:01:22;14.07;;;7.38;;
62844;SDS011;48929;47.910;20.390;2023-03-01T04:03:51;13.50;;;7.15;;
62844;SDS011;48929;47.910;20.390;2023-03-01T04:06:21;15.85;;;7.07;;
62844;SDS011;48929;47.910;20.390;2023-03-01T04:08:50;14.65;;;7.60;;
62844;SDS011;48929;47.910;20.390;2023-03-01T04:11:28;17.25;;;7.95;;
62844;SDS011;48929;47.910;20.390;2023-03-01T04:13:57;18.55;;;8.57;;
62844;SDS011;48929;47.910;20.390;2023-03-01T04:16:26;19.40;;;8.18;;
62844;SDS011;48929;47.910;20.390;2023-03-01T04:18:55;15.43;;;7.28;;
62844;SDS011;48929;47.910;20.390;2023-03-01T04:21:26;16.60;;;8.07;;
62844;SDS011;48929;47.910;20.390;2023-03-01T04:23:55;13.73;;;6.82;;
62844;SDS011;48929;47.910;20.390;2023-03-01T04:26:24;13.73;;;7.57;;
62844;SDS011;48929;47.910;20.390;2023-03-01T04:28:55;15.00;;;7.65;;
62844;SDS011;48929;47.910;20.390;2023-03-01T04:31:24;14.15;;;7.72;;
62844;SDS011;48929;47.910;20.390;2023-03-01T04:33:53;13.63;;;7.13;;
62844;SDS011;48929;47.910;20.390;2023-03-01T04:36:24;15.63;;;6.63;;
62844;SDS011;48929;47.910;20.390;2023-03-01T04:38:55;11.00;;;5.75;;
62844;SDS011;48929;47.910;20.390;2023-03-01T04:41:25;14.52;;;6.13;;
62844;SDS011;48929;47.910;20.390;2023-03-01T04:43:55;12.18;;;6.07;;
62844;SDS011;48929;47.910;20.390;2023-03-01T04:46:26;12.27;;;5.95;;
62844;SDS011;48929;47.910;20.390;2023-03-01T04:48:55;13.82;;;6.05;;
62844;SDS011;48929;47.910;20.390;2023-03-01T04:51:24;13.90;;;6.22;;
62844;SDS011;48929;47.910;20.390;2023-03-01T04:53:53;9.43;;;5.57;;
62844;SDS011;48929;47.910;20.390;2023-03-01T04:56:22;13.40;;;5.57;;
62844;SDS011;48929;47.910;20.390;2023-03-01T04:58:52;9.80;;;5.30;;
62844;SDS011;48929;47.910;20.390;2023-03-01T05:01:26;11.25;;;5.68;;
62844;SDS011;48929;47.910;20.390;2023-03-01T05:03:54;14.73;;;6.80;;
62844;SDS011;48929;47.910;20.390;2023-03-01T05:06:29;13.75;;;7.95;;
62844;SDS011;48929;47.910;20.390;2023-03-01T05:08:58;17.85;;;10.10;;
62844;SDS011;48929;47.910;20.390;2023-03-01T05:11:28;15.52;;;8.55;;
62844;SDS011;48929;47.910;20.390;2023-03-01T05:14:00;13.25;;;7.15;;
62844;SDS011;48929;47.910;20.390;2023-03-01T05:16:30;13.40;;;7.25;;
62844;SDS011;48929;47.910;20.390;2023-03-01T05:19:02;14.18;;;6.72;;
62844;SDS011;48929;47.910;20.390;2023-03-01T05:21:38;11.98;;;6.47;;
62844;SDS011;48929;47.910;20.390;2023-03-01T05:24:27;12.70;;;6.07;;
62844;SDS011;48929;47.910;20.390;2023-03-01T05:26:56;15.63;;;5.97;;
62844;SDS011;48929;47.910;20.390;2023-03-01T05:29:26;11.45;;;6.03;;
62844;SDS011;48929;47.910;20.390;2023-03-01T05:31:57;14.38;;;5.90;;
62844;SDS011;48929;47.910;20.390;2023-03-01T05:34:28;15.50;;;8.13;;
62844;SDS011;48929;47.910;20.390;2023-03-01T05:36:58;15.85;;;7.72;;
62844;SDS011;48929;47.910;20.390;2023-03-01T05:39:28;20.25;;;10.45;;
62844;SDS011;48929;47.910;20.390;2023-03-01T05:41:58;23.05;;;12.70;;
62844;SDS011;48929;47.910;20.390;2023-03-01T05:44:28;21.27;;;10.63;;
62844;SDS011;48929;47.910;20.390;2023-03-01T05:46:59;21.00;;;10.43;;
62844;SDS011;48929;47.910;20.390;2023-03-01T05:49:28;31.52;;;16.85;;
62844;SDS011;48929;47.910;20.390;2023-03-01T05:51:58;31.13;;;19.50;;
62844;SDS011;48929;47.910;20.390;2023-03-01T05:54:27;26.25;;;14.88;;
62844;SDS011;48929;47.910;20.390;2023-03-01T05:56:56;27.58;;;14.07;;
62844;SDS011;48929;47.910;20.390;2023-03-01T05:59:24;23.23;;;11.82;;
62844;SDS011;48929;47.910;20.390;2023-03-01T06:01:53;25.15;;;11.82;;
62844;SDS011;48929;47.910;20.390;2023-03-01T06:04:24;24.63;;;12.00;;
62844;SDS011;48929;47.910;20.390;2023-03-01T06:06:53;22.08;;;11.68;;
62844;SDS011;48929;47.910;20.390;2023-03-01T06:09:21;24.25;;;13.35;;
62844;SDS011;48929;47.910;20.390;2023-03-01T06:11:52;27.92;;;12.80;;
62844;SDS011;48929;47.910;20.390;2023-03-01T06:14:21;25.60;;;14.85;;
62844;SDS011;48929;47.910;20.390;2023-03-01T06:16:50;26.77;;;14.00;;
62844;SDS011;48929;47.910;20.390;2023-03-01T06:19:19;28.05;;;14.38;;
62844;SDS011;48929;47.910;20.390;2023-03-01T06:21:49;29.17;;;13.98;;
62844;SDS011;48929;47.910;20.390;2023-03-01T06:24:18;39.17;;;19.10;;
62844;SDS011;48929;47.910;20.390;2023-03-01T06:26:47;39.17;;;18.90;;
62844;SDS011;48929;47.910;20.390;2023-03-01T06:29:16;54.40;;;27.58;;
62844;SDS011;48929;47.910;20.390;2023-03-01T06:31:45;33.80;;;17.83;;
62844;SDS011;48929;47.910;20.390;2023-03-01T06:34:14;50.47;;;25.45;;
62844;SDS011;48929;47.910;20.390;2023-03-01T06:36:43;29.23;;;15.07;;
62844;SDS011;48929;47.910;20.390;2023-03-01T06:39:13;30.15;;;14.20;;
62844;SDS011;48929;47.910;20.390;2023-03-01T06:41:44;25.05;;;12.20;;
62844;SDS011;48929;47.910;20.390;2023-03-01T06:44:13;26.50;;;14.57;;
62844;SDS011;48929;47.910;20.390;2023-03-01T06:46:42;29.33;;;14.90;;
62844;SDS011;48929;47.910;20.390;2023-03-01T06:49:11;26.52;;;13.02;;
62844;SDS011;48929;47.910;20.390;2023-03-01T06:51:40;23.27;;;11.02;;
62844;SDS011;48929;47.910;20.390;2023-03-01T06:54:09;20.63;;;11.38;;
62844;SDS011;48929;47.910;20.390;2023-03-01T06:56:39;20.30;;;11.05;;
62844;SDS011;48929;47.910;20.390;2023-03-01T06:59:08;20.70;;;10.27;;
62844;SDS011;48929;47.910;20.390;2023-03-01T07:01:39;22.30;;;10.60;;
62844;SDS011;48929;47.910;20.390;2023-03-01T07:04:08;24.73;;;12.10;;
62844;SDS011;48929;47.910;20.390;2023-03-01T07:06:37;24.88;;;15.38;;
62844;SDS011;48929;47.910;20.390;2023-03-01T07:09:06;19.38;;;10.50;;
62844;SDS011;48929;47.910;20.390;2023-03-01T07:11:35;21.80;;;10.75;;
62844;SDS011;48929;47.910;20.390;2023-03-01T07:14:06;25.05;;;11.02;;
62844;SDS011;48929;47.910;20.390;2023-03-01T07:16:34;21.65;;;10.55;;
62844;SDS011;48929;47.910;20.390;2023-03-01T07:19:03;20.98;;;11.30;;
62844;SDS011;48929;47.910;20.390;2023-03-01T07:21:32;24.33;;;11.90;;
62844;SDS011;48929;47.910;20.390;2023-03-01T07:24:01;20.50;;;10.63;;
62844;SDS011;48929;47.910;20.390;2023-03-01T07:26:29;20.10;;;9.40;;
62844;SDS011;48929;47.910;20.390;2023-03-01T07:28:58;19.38;;;9.50;;
62844;SDS011;48929;47.910;20.390;2023-03-01T07:31:29;29.60;;;15.52;;
62844;SDS011;48929;47.910;20.390;2023-03-01T07:33:58;22.63;;;12.32;;
62844;SDS011;48929;47.910;20.390;2023-03-01T07:36:27;54.83;;;30.48;;
62844;SDS011;48929;47.910;20.390;2023-03-01T07:38:56;33.92;;;17.20;;
62844;SDS011;48929;47.910;20.390;2023-03-01T07:41:24;29.90;;;17.90;;
62844;SDS011;48929;47.910;20.390;2023-03-01T07:43:53;37.00;;;23.02;;
62844;SDS011;48929;47.910;20.390;2023-03-01T07:46:22;25.38;;;14.02;;
62844;SDS011;48929;47.910;20.390;2023-03-01T07:48:53;29.88;;;18.65;;
62844;SDS011;48929;47.910;20.390;2023-03-01T07:51:22;25.20;;;15.38;;
62844;SDS011;48929;47.910;20.390;2023-03-01T07:53:52;29.60;;;18.15;;
62844;SDS011;48929;47.910;20.390;2023-03-01T07:56:21;22.08;;;12.07;;
62844;SDS011;48929;47.910;20.390;2023-03-01T07:58:50;21.27;;;12.93;;
62844;SDS011;48929;47.910;20.390;2023-03-01T08:01:19;26.35;;;12.90;;
62844;SDS011;48929;47.910;20.390;2023-03-01T08:03:49;25.35;;;12.27;;
62844;SDS011;48929;47.910;20.390;2023-03-01T08:06:19;25.48;;;11.98;;
62844;SDS011;48929;47.910;20.390;2023-03-01T08:08:48;23.33;;;12.02;;
62844;SDS011;48929;47.910;20.390;2023-03-01T08:11:17;19.08;;;10.60;;
62844;SDS011;48929;47.910;20.390;2023-03-01T08:13:47;21.45;;;11.07;;
62844;SDS011;48929;47.910;20.390;2023-03-01T08:16:19;20.80;;;11.68;;
62844;SDS011;48929;47.910;20.390;2023-03-01T08:18:48;20.35;;;10.45;;
62844;SDS011;48929;47.910;20.390;2023-03-01T08:21:17;22.17;;;13.48;;
62844;SDS011;48929;47.910;20.390;2023-03-01T08:23:47;21.65;;;11.50;;
62844;SDS011;48929;47.910;20.390;2023-03-01T08:26:16;18.33;;;10.70;;
62844;SDS011;48929;47.910;20.390;2023-03-01T08:28:46;18.00;;;10.32;;
62844;SDS011;48929;47.910;20.390;2023-03-01T08:31:16;19.17;;;10.75;;
62844;SDS011;48929;47.910;20.390;2023-03-01T08:33:46;18.58;;;9.75;;
62844;SDS011;48929;47.910;20.390;2023-03-01T08:36:17;18.90;;;10.48;;
62844;SDS011;48929;47.910;20.390;2023-03-01T08:38:49;14.60;;;8.43;;
62844;SDS011;48929;47.910;20.390;2023-03-01T08:41:18;12.93;;;7.55;;
62844;SDS011;48929;47.910;20.390;2023-03-01T08:43:47;13.05;;;7.88;;
62844;SDS011;48929;47.910;20.390;2023-03-01T08:46:16;15.68;;;8.15;;
62844;SDS011;48929;47.910;20.390;2023-03-01T08:48:45;14.35;;;8.98;;
62844;SDS011;48929;47.910;20.390;2023-03-01T08:51:15;19.60;;;10.10;;
62844;SDS011;48929;47.910;20.390;2023-03-01T08:53:46;17.25;;;10.13;;
62844;SDS011;48929;47.910;20.390;2023-03-01T08:56:17;21.23;;;12.02;;
62844;SDS011;48929;47.910;20.390;2023-03-01T08:58:46;17.58;;;10.45;;
62844;SDS011;48929;47.910;20.390;2023-03-01T09:01:17;15.98;;;9.20;;
62844;SDS011;48929;47.910;20.390;2023-03-01T09:03:47;21.23;;;10.73;;
62844;SDS011;48929;47.910;20.390;2023-03-01T09:06:16;17.13;;;9.13;;
62844;SDS011;48929;47.910;20.390;2023-03-01T09:08:46;15.70;;;8.85;;
62844;SDS011;48929;47.910;20.390;2023-03-01T09:11:20;13.93;;;8.52;;
62844;SDS011;48929;47.910;20.390;2023-03-01T09:13:49;13.60;;;8.18;;
62844;SDS011;48929;47.910;20.390;2023-03-01T09:16:19;15.60;;;8.50;;
62844;SDS011;48929;47.910;20.390;2023-03-01T09:18:50;14.88;;;8.40;;
62844;SDS011;48929;47.910;20.390;2023-03-01T09:21:21;14.95;;;8.80;;
62844;SDS011;48929;47.910;20.390;2023-03-01T09:24:06;13.32;;;8.48;;
62844;SDS011;48929;47.910;20.390;2023-03-01T09:26:41;16.77;;;8.55;;
62844;SDS011;48929;47.910;20.390;2023-03-01T09:29:15;13.85;;;7.70;;
62844;SDS011;48929;47.910;20.390;2023-03-01T09:31:48;14.70;;;7.72;;
62844;SDS011;48929;47.910;20.390;2023-03-01T09:34:23;12.98;;;7.63;;
62844;SDS011;48929;47.910;20.390;2023-03-01T09:36:52;13.27;;;7.68;;
62844;SDS011;48929;47.910;20.390;2023-03-01T09:39:21;13.43;;;7.82;;
62844;SDS011;48929;47.910;20.390;2023-03-01T09:41:54;13.32;;;8.25;;
62844;SDS011;48929;47.910;20.390;2023-03-01T09:44:30;17.17;;;8.65;;
62844;SDS011;48929;47.910;20.390;2023-03-01T09:47:03;13.13;;;8.13;;
62844;SDS011;48929;47.910;20.390;2023-03-01T09:49:34;13.07;;;7.68;;
62844;SDS011;48929;47.910;20.390;2023-03-01T09:52:09;14.05;;;7.80;;
62844;SDS011;48929;47.910;20.390;2023-03-01T09:54:48;13.80;;;7.88;;
62844;SDS011;48929;47.910;20.390;2023-03-01T09:57:24;14.15;;;8.75;;
62844;SDS011;48929;47.910;20.390;2023-03-01T10:00:03;14.40;;;8.27;;
62844;SDS011;48929;47.910;20.390;2023-03-01T10:02:45;13.18;;;8.60;;
62844;SDS011;48929;47.910;20.390;2023-03-01T10:05:25;15.50;;;9.05;;
62844;SDS011;48929;47.910;20.390;2023-03-01T10:08:02;15.65;;;8.25;;
62844;SDS011;48929;47.910;20.390;2023-03-01T10:10:48;13.80;;;8.55;;
62844;SDS011;48929;47.910;20.390;2023-03-01T10:13:21;13.63;;;8.20;;
62844;SDS011;48929;47.910;20.390;2023-03-01T10:15:55;14.40;;;8.18;;
62844;SDS011;48929;47.910;20.390;2023-03-01T10:18:28;16.42;;;8.02;;
62844;SDS011;48929;47.910;20.390;2023-03-01T10:20:59;13.65;;;8.02;;
62844;SDS011;48929;47.910;20.390;2023-03-01T10:23:30;14.50;;;8.48;;
62844;SDS011;48929;47.910;20.390;2023-03-01T10:26:09;13.13;;;7.93;;
62844;SDS011;48929;47.910;20.390;2023-03-01T10:28:57;15.20;;;8.13;;
62844;SDS011;48929;47.910;20.390;2023-03-01T10:31:37;13.38;;;7.85;;
62844;SDS011;48929;47.910;20.390;2023-03-01T10:34:11;17.20;;;8.40;;
62844;SDS011;48929;47.910;20.390;2023-03-01T10:36:42;16.13;;;8.82;;
62844;SDS011;48929;47.910;20.390;2023-03-01T10:39:13;16.85;;;9.30;;
62844;SDS011;48929;47.910;20.390;2023-03-01T10:41:54;14.15;;;8.82;;
62844;SDS011;48929;47.910;20.390;2023-03-01T10:44:40;16.85;;;8.38;;
62844;SDS011;48929;47.910;20.390;2023-03-01T10:47:15;15.25;;;8.00;;
62844;SDS011;48929;47.910;20.390;2023-03-01T10:49:51;13.88;;;8.43;;
62844;SDS011;48929;47.910;20.390;2023-03-01T10:52:34;16.52;;;8.40;;
62844;SDS011;48929;47.910;20.390;2023-03-01T10:55:19;15.52;;;7.95;;
62844;SDS011;48929;47.910;20.390;2023-03-01T10:58:06;14.25;;;7.32;;
62844;SDS011;48929;47.910;20.390;2023-03-01T11:00:49;14.13;;;7.80;;
62844;SDS011;48929;47.910;20.390;2023-03-01T11:03:23;11.98;;;7.05;;
62844;SDS011;48929;47.910;20.390;2023-03-01T11:05:56;12.05;;;6.68;;
62844;SDS011;48929;47.910;20.390;2023-03-01T11:08:35;10.98;;;6.68;;
62844;SDS011;48929;47.910;20.390;2023-03-01T11:11:10;12.95;;;6.60;;
62844;SDS011;48929;47.910;20.390;2023-03-01T11:13:52;13.35;;;6.90;;
62844;SDS011;48929;47.910;20.390;2023-03-01T11:16:32;9.98;;;6.38;;
62844;SDS011;48929;47.910;20.390;2023-03-01T11:21:57;11.18;;;6.18;;
62844;SDS011;48929;47.910;20.390;2023-03-01T11:24:33;12.18;;;6.95;;
62844;SDS011;48929;47.910;20.390;2023-03-01T11:27:12;11.73;;;6.13;;
62844;SDS011;48929;47.910;20.390;2023-03-01T11:29:46;11.93;;;6.72;;
62844;SDS011;48929;47.910;20.390;2023-03-01T11:32:20;11.73;;;6.88;;
62844;SDS011;48929;47.910;20.390;2023-03-01T11:34:54;14.63;;;7.10;;
62844;SDS011;48929;47.910;20.390;2023-03-01T11:37:30;11.40;;;6.78;;
62844;SDS011;48929;47.910;20.390;2023-03-01T11:40:15;10.60;;;6.85;;
62844;SDS011;48929;47.910;20.390;2023-03-01T11:43:01;13.50;;;7.50;;
62844;SDS011;48929;47.910;20.390;2023-03-01T11:45:39;12.82;;;7.10;;
62844;SDS011;48929;47.910;20.390;2023-03-01T11:51:20;12.30;;;6.72;;
62844;SDS011;48929;47.910;20.390;2023-03-01T11:53:59;12.90;;;7.07;;
62844;SDS011;48929;47.910;20.390;2023-03-01T11:56:34;12.98;;;7.13;;
62844;SDS011;48929;47.910;20.390;2023-03-01T11:59:26;11.82;;;6.25;;
62844;SDS011;48929;47.910;20.390;2023-03-01T12:02:29;11.98;;;6.63;;
62844;SDS011;48929;47.910;20.390;2023-03-01T12:05:23;12.18;;;6.65;;
62844;SDS011;48929;47.910;20.390;2023-03-01T12:08:14;13.52;;;7.18;;
62844;SDS011;48929;47.910;20.390;2023-03-01T12:10:47;12.77;;;7.03;;
62844;SDS011;48929;47.910;20.390;2023-03-01T12:13:27;11.43;;;6.15;;
62844;SDS011;48929;47.910;20.390;2023-03-01T12:16:28;11.70;;;6.38;;
62844;SDS011;48929;47.910;20.390;2023-03-01T12:19:13;11.95;;;6.55;;
62844;SDS011;48929;47.910;20.390;2023-03-01T12:22:07;12.40;;;6.93;;
62844;SDS011;48929;47.910;20.390;2023-03-01T12:28:01;10.18;;;6.50;;
62844;SDS011;48929;47.910;20.390;2023-03-01T12:30:45;10.18;;;6.35;;
62844;SDS011;48929;47.910;20.390;2023-03-01T12:33:53;9.98;;;6.07;;
62844;SDS011;48929;47.910;20.390;2023-03-01T12:36:37;9.95;;;5.57;;
62844;SDS011;48929;47.910;20.390;2023-03-01T12:39:20;9.93;;;5.47;;
62844;SDS011;48929;47.910;20.390;2023-03-01T12:42:01;11.63;;;6.00;;
62844;SDS011;48929;47.910;20.390;2023-03-01T12:44:45;9.20;;;5.53;;
62844;SDS011;48929;47.910;20.390;2023-03-01T12:50:17;9.85;;;5.47;;
62844;SDS011;48929;47.910;20.390;2023-03-01T12:52:53;10.55;;;6.70;;
62844;SDS011;48929;47.910;20.390;2023-03-01T12:55:27;10.45;;;5.90;;
62844;SDS011;48929;47.910;20.390;2023-03-01T12:58:01;11.77;;;5.82;;
62844;SDS011;48929;47.910;20.390;2023-03-01T13:00:38;12.82;;;6.22;;
62844;SDS011;48929;47.910;20.390;2023-03-01T13:03:17;12.40;;;6.07;;
62844;SDS011;48929;47.910;20.390;2023-03-01T13:05:59;9.75;;;5.72;;
62844;SDS011;48929;47.910;20.390;2023-03-01T13:08:36;12.50;;;6.63;;
62844;SDS011;48929;47.910;20.390;2023-03-01T13:11:15;11.02;;;6.50;;
62844;SDS011;48929;47.910;20.390;2023-03-01T13:13:46;12.75;;;6.60;;
62844;SDS011;48929;47.910;20.390;2023-03-01T13:16:38;11.07;;;7.05;;
62844;SDS011;48929;47.910;20.390;2023-03-01T13:19:10;14.57;;;7.07;;
62844;SDS011;48929;47.910;20.390;2023-03-01T13:21:42;14.63;;;7.07;;
62844;SDS011;48929;47.910;20.390;2023-03-01T13:24:26;13.27;;;6.97;;
62844;SDS011;48929;47.910;20.390;2023-03-01T13:29:57;12.20;;;7.00;;
62844;SDS011;48929;47.910;20.390;2023-03-01T13:32:33;13.20;;;7.63;;
62844;SDS011;48929;47.910;20.390;2023-03-01T13:41:06;13.15;;;7.28;;
62844;SDS011;48929;47.910;20.390;2023-03-01T13:43:38;14.45;;;7.32;;
62844;SDS011;48929;47.910;20.390;2023-03-01T13:46:10;12.30;;;7.07;;
62844;SDS011;48929;47.910;20.390;2023-03-01T13:48:45;13.07;;;7.25;;
62844;SDS011;48929;47.910;20.390;2023-03-01T13:51:20;12.05;;;6.97;;
62844;SDS011;48929;47.910;20.390;2023-03-01T13:53:51;13.02;;;7.50;;
62844;SDS011;48929;47.910;20.390;2023-03-01T13:56:23;12.77;;;6.80;;
62844;SDS011;48929;47.910;20.390;2023-03-01T13:58:57;13.00;;;8.00;;
62844;SDS011;48929;47.910;20.390;2023-03-01T14:01:28;15.35;;;7.43;;
62844;SDS011;48929;47.910;20.390;2023-03-01T14:03:58;15.35;;;8.07;;
62844;SDS011;48929;47.910;20.390;2023-03-01T14:06:28;13.70;;;7.25;;
62844;SDS011;48929;47.910;20.390;2023-03-01T14:09:03;14.20;;;8.40;;
62844;SDS011;48929;47.910;20.390;2023-03-01T14:11:50;14.63;;;7.72;;
62844;SDS011;48929;47.910;20.390;2023-03-01T14:20:20;15.00;;;7.32;;
62844;SDS011;48929;47.910;20.390;2023-03-01T14:22:52;13.88;;;7.75;;
62844;SDS011;48929;47.910;20.390;2023-03-01T14:25:23;13.68;;;7.40;;
62844;SDS011;48929;47.910;20.390;2023-03-01T14:27:55;14.80;;;7.93;;
62844;SDS011;48929;47.910;20.390;2023-03-01T14:30:30;14.90;;;7.40;;
62844;SDS011;48929;47.910;20.390;2023-03-01T14:33:02;14.18;;;7.22;;
62844;SDS011;48929;47.910;20.390;2023-03-01T14:35:34;13.13;;;7.15;;
62844;SDS011;48929;47.910;20.390;2023-03-01T14:38:19;12.05;;;7.13;;
62844;SDS011;48929;47.910;20.390;2023-03-01T14:40:50;12.30;;;7.00;;
62844;SDS011;48929;47.910;20.390;2023-03-01T14:43:23;13.40;;;7.20;;
62844;SDS011;48929;47.910;20.390;2023-03-01T14:45:57;13.85;;;7.50;;
62844;SDS011;48929;47.910;20.390;2023-03-01T14:48:26;12.73;;;7.25;;
62844;SDS011;48929;47.910;20.390;2023-03-01T14:50:56;12.00;;;6.80;;
62844;SDS011;48929;47.910;20.390;2023-03-01T14:53:27;11.30;;;7.00;;
62844;SDS011;48929;47.910;20.390;2023-03-01T14:56:15;13.35;;;6.72;;
62844;SDS011;48929;47.910;20.390;2023-03-01T14:58:50;12.07;;;7.07;;
62844;SDS011;48929;47.910;20.390;2023-03-01T15:01:21;12.80;;;6.97;;
62844;SDS011;48929;47.910;20.390;2023-03-01T15:03:50;11.80;;;6.85;;
62844;SDS011;48929;47.910;20.390;2023-03-01T15:06:21;13.02;;;6.82;;
62844;SDS011;48929;47.910;20.390;2023-03-01T15:08:51;13.73;;;6.97;;
62844;SDS011;48929;47.910;20.390;2023-03-01T15:11:24;12.15;;;6.68;;
62844;SDS011;48929;47.910;20.390;2023-03-01T15:13:57;13.18;;;6.95;;
62844;SDS011;48929;47.910;20.390;2023-03-01T15:16:28;12.13;;;6.70;;
62844;SDS011;48929;47.910;20.390;2023-03-01T15:18:59;10.98;;;5.90;;
62844;SDS011;48929;47.910;20.390;2023-03-01T15:21:30;12.73;;;6.95;;